• Join FlightAware (Why Join?)
  • Login
  • US Flag 
03:34AM EDT


 

Airport Tracker/Info


-or-


 

Live Flight TrackerFlight Track Log ✈ SWA3121 ✈ 26-Apr-2013 ✈ KMCO - KHOU

Flight Track Log - Related Links

Times and Time Zones

All times are in EDT time to prevent confusion due to time zone crossing. See the SWA3121 flight status page for this flight to view local times or setup timezone preferences in your user account.

Time Position Orientation Groundspeed Altitude Reporting Facility
EDT Latitude Longitude Course Direction KTS MPH feet Rate Location/Type
07:52PM 28.4500 -81.3000 360° North 174 200 1,600  Level Orlando TRACON
07:53PM 28.5000 -81.3167 344° North 222 255 4,200 2,460 Climbing Orlando TRACON
07:54PM 28.5500 -81.3500 330° Northwest 234 269 6,400 2,460 Climbing Orlando TRACON
07:56PM 28.5247 -81.5411 261° West 321 369 11,500 2,760 Climbing Jacksonville Center
07:57PM 28.4986 -81.6525 255° West 338 389 14,900 3,300 Climbing Jacksonville Center
07:58PM 28.4664 -81.7661 252° West 363 418 18,100 2,820 Climbing Jacksonville Center
07:59PM 28.4339 -81.8822 252° West 383 441 20,600 2,700 Climbing Jacksonville Center
08:00PM 28.3953 -82.0147 252° West 395 455 23,500 2,520 Climbing Jacksonville Center
08:01PM 28.3628 -82.1400 254° West 403 464 25,700 1,980 Climbing Jacksonville Center
08:02PM 28.3278 -82.2678 253° West 409 471 27,500 1,920 Climbing Jacksonville Center
08:04PM 28.2558 -82.5175 252° West 434 499 31,600 1,920 Climbing Miami Center
08:05PM 28.2189 -82.6614 254° West 434 499 33,400 1,800 Climbing Miami Center
08:06PM 28.1803 -82.7914 251° West 434 499 35,200 1,920 Climbing Miami Center
08:07PM 28.1436 -82.9142 251° West 429 494 37,300 1,380 Climbing Miami Center
08:08PM 28.1114 -83.0369 253° West 424 488 38,000 300 Climbing Miami Center
08:09PM 28.0694 -83.1828 252° West 411 473 38,000  Level Miami Center
08:10PM 28.0850 -83.3058 278° West 396 456 38,000  Level Miami Center
08:11PM 28.1086 -83.4272 282° West 396 456 38,000  Level Miami Center
08:12PM 28.1458 -83.6222 282° West 421 484 38,000  Level Jacksonville Center
08:13PM 28.1681 -83.7447 282° West 414 476 38,000  Level Jacksonville Center
08:14PM 28.1881 -83.8628 281° West 407 468 38,000  Level Jacksonville Center
08:15PM 28.2119 -83.9878 282° West 402 463 38,000  Level Jacksonville Center
08:16PM 28.2339 -84.1083 282° West 397 457 38,000  Level Jacksonville Center
08:17PM 28.2536 -84.2286 281° West 397 457 38,000  Level Jacksonville Center
08:18PM 28.2711 -84.3492 279° West 392 451 38,000  Level Jacksonville Center
08:19PM 28.2864 -84.4647 279° West 402 463 38,000  Level Jacksonville Center
08:20PM 28.3100 -84.5783 283° West 402 463 38,000  Level Jacksonville Center
08:21PM 28.3250 -84.7036 278° West 397 457 38,000  Level Jacksonville Center
08:22PM 28.3442 -84.8264 280° West 391 450 38,000  Level Jacksonville Center
08:23PM 28.3608 -84.9472 279° West 391 450 38,000  Level Jacksonville Center
08:24PM 28.3797 -85.0703 280° West 396 456 38,000  Level Jacksonville Center
08:25PM 28.3986 -85.1933 280° West 396 456 38,000  Level Jacksonville Center
08:26PM 28.4172 -85.3142 280° West 390 449 38,000  Level Jacksonville Center
08:27PM 28.4336 -85.4372 279° West 395 455 38,000  Level Jacksonville Center
08:28PM 28.4497 -85.5628 278° West 390 449 38,000  Level Jacksonville Center
08:29PM 28.4703 -85.6861 281° West 390 449 38,000  Level Jacksonville Center
08:30PM 28.4861 -85.8094 278° West 390 449 38,000  Level Jacksonville Center
08:31PM 28.5022 -85.9325 279° West 396 456 38,000  Level Jacksonville Center
08:32PM 28.5181 -86.0536 278° West 396 456 38,000  Level Jacksonville Center
08:33PM 28.5358 -86.1769 279° West 395 455 38,000  Level Jacksonville Center
08:34PM 28.5533 -86.2981 279° West 395 455 38,000  Level Jacksonville Center
08:35PM 28.5711 -86.4192 280° West 390 449 38,000  Level Jacksonville Center
08:36PM 28.5883 -86.5450 279° West 390 449 38,000  Level Jacksonville Center
08:37PM 28.6017 -86.6661 277° West 398 458 38,000  Level Jacksonville Center
08:38PM 28.6208 -86.7922 280° West 403 464 38,000  Level Jacksonville Center
08:39PM 28.6336 -86.9133 277° West 403 464 38,000  Level Jacksonville Center
08:40PM 28.6528 -87.0347 280° West 403 464 38,000  Level Jacksonville Center
08:41PM 28.6675 -87.1583 278° West 403 464 38,000  Level Jacksonville Center
08:42PM 28.6842 -87.2819 279° West 397 457 38,000  Level Jacksonville Center
08:43PM 28.6947 -87.3750 277° West 395 455 38,000  Level Houston Center
08:44PM 28.7106 -87.5003 278° West 399 459 38,000  Level Houston Center
08:45PM 28.7264 -87.6242 278° West 397 457 38,000  Level Houston Center
08:46PM 28.7406 -87.7500 277° West 398 458 38,000  Level Houston Center
08:47PM 28.7600 -87.8972 279° West 396 456 38,000  Level Houston Center
08:48PM 28.7747 -88.0208 278° West 394 453 38,000  Level Houston Center
08:49PM 28.7900 -88.1383 278° West 398 458 38,000  Level Houston Center
08:50PM 28.8042 -88.2631 277° West 397 457 38,000  Level Houston Center
08:51PM 28.8200 -88.3875 278° West 397 457 38,000  Level Houston Center
08:52PM 28.8364 -88.5386 277° West 401 461 38,000  Level Houston Center
08:53PM 28.8519 -88.6636 278° West 400 460 38,000  Level Houston Center
08:54PM 28.8658 -88.7892 277° West 400 460 38,000  Level Houston Center
08:55PM 28.8817 -88.9142 278° West 398 458 38,000  Level Houston Center
08:57PM 28.8950 -89.0419 277° West 404 465 38,000  Level Houston Center
08:58PM 28.9097 -89.1667 278° West 400 460 38,000  Level Houston Center
08:59PM 28.9239 -89.2928 277° West 401 461 38,000  Level Houston Center
09:00PM 28.9378 -89.4172 277° West 396 456 38,000  Level Houston Center
09:01PM 28.9539 -89.5661 277° West 396 456 38,000  Level Houston Center
09:02PM 28.9681 -89.6925 277° West 398 458 38,000  Level Houston Center
09:03PM 28.9811 -89.8150 277° West 391 450 38,000  Level Houston Center
09:04PM 28.9942 -89.9389 277° West 393 452 38,000  Level Houston Center
09:05PM 29.0078 -90.0611 277° West 389 448 38,000  Level Houston Center
09:06PM 29.0208 -90.1839 277° West 390 449 38,000  Level Houston Center
09:07PM 29.0342 -90.3058 277° West 390 449 38,000  Level Houston Center
09:08PM 29.0472 -90.4289 277° West 391 450 38,000  Level Houston Center
09:09PM 29.0594 -90.5531 276° West 393 452 38,000  Level Houston Center
09:10PM 29.0750 -90.7006 277° West 392 451 38,000  Level Houston Center
09:11PM 29.0878 -90.8250 277° West 393 452 38,000  Level Houston Center
09:12PM 29.0983 -90.9464 276° West 388 447 38,000  Level Houston Center
09:13PM 29.1114 -91.0731 277° West 396 456 38,000  Level Houston Center
09:14PM 29.1236 -91.1981 276° West 397 457 38,000  Level Houston Center
09:15PM 29.1356 -91.3228 276° West 396 456 38,000  Level Houston Center
09:16PM 29.1478 -91.4467 276° West 394 453 38,000  Level Houston Center
09:17PM 29.1592 -91.5703 276° West 392 451 38,000  Level Houston Center
09:18PM 29.1719 -91.6961 277° West 397 457 38,000  Level Houston Center
09:19PM 29.1869 -91.8511 276° West 403 464 38,000  Level Houston Center
09:20PM 29.1983 -91.9772 276° West 401 461 38,000  Level Houston Center
09:21PM 29.2100 -92.1028 276° West 399 459 38,000  Level Houston Center
09:22PM 29.2214 -92.2286 276° West 398 458 38,000  Level Houston Center
09:23PM 29.2328 -92.3542 276° West 397 457 38,000  Level Houston Center
09:24PM 29.2436 -92.4775 276° West 394 453 38,000  Level Houston Center
09:25PM 29.2469 -92.6033 272° West 394 453 38,000  Level Houston Center
09:26PM 29.2483 -92.7303 271° West 396 456 38,000  Level Houston Center
09:27PM 29.2494 -92.8561 271° West 396 456 38,000 -900 Level Houston Center
09:28PM 29.2519 -92.9806 271° West 393 452 36,200 -2,100 Descending Houston Center
09:29PM 29.2539 -93.1281 271° West 388 447 33,700 -1,620 Descending Houston Center
09:30PM 29.2564 -93.2525 271° West 390 449 32,900 -1,500 Descending Houston Center
09:31PM 29.2575 -93.3833 271° West 403 464 30,700 -2,100 Descending Houston Center
09:32PM 29.2594 -93.5058 271° West 393 452 28,600 -2,100 Descending Houston Center
09:33PM 29.2611 -93.6272 271° West 384 442 26,500 -2,160 Descending Houston Center
09:34PM 29.2617 -93.7489 270° West 381 438 24,300 -2,220 Descending Houston Center
09:35PM 29.2636 -93.8817 271° West 376 433 22,000 -2,160 Descending Houston Center
09:36PM 29.2631 -93.9967 270° West 366 421 20,000 -1,980 Descending Houston Center
09:37PM 29.2650 -94.1072 271° West 355 409 18,000 -1,860 Descending Houston Center
09:38PM 29.2642 -94.1453 269° West 348 400 17,600 -1,920 Descending Houston Center
09:38PM 29.2653 -94.1978 271° West 345 397 16,500 -2,100 Descending Houston Center
09:39PM 29.2658 -94.3081 270° West 346 398 14,500 -1,980 Descending Houston Center
09:40PM 29.2661 -94.4158 270° West 342 394 12,500 -1,320 Descending Houston Center
09:41PM 29.2769 -94.5056 278° West 311 358 12,000 -420 Descending Houston Center
09:42PM 29.2886 -94.5281 301° West 312 359 12,000 -600 Level Houston Center
09:42PM 29.3217 -94.5958 299° West 300 345 11,400 -900 Descending Houston Center
09:43PM 29.3300 -94.6108 303° West 300 345 11,100 -1,020 Descending Houston Center
09:43PM 29.3664 -94.6883 298° West 291 335 10,200 -660 Descending Houston Center
09:44PM 29.4028 -94.7606 300° West 285 328 10,000 -180 Descending Houston Center
09:45PM 29.4081 -94.7700 303° West 286 329 10,000  Level Houston Center
09:45PM 29.4394 -94.8353 299° West 283 326 10,000  Level Houston Center
09:46PM 29.4469 -94.8489 302° West 285 328 10,000  Level Houston Center
09:46PM 29.4783 -94.9119 300° West 283 326 10,000  Level Houston Center
09:47PM 29.4931 -94.9428 299° West 282 325 10,000 -900 Level Houston Center
09:47PM 29.5206 -95.0028 298° West 278 320 9,000 -1,380 Descending Houston Center
09:48PM 29.5308 -95.0203 304° West 279 321 8,600 -1,500 Descending Houston Center
09:48PM 29.5592 -95.0797 299° West 276 318 7,500 -1,500 Descending Houston Center
09:49PM 29.5686 -95.0981 301° West 278 320 7,100 -1,500 Descending Houston Center
09:49PM 29.5964 -95.1617 297° West 289 333 6,000 -1,140 Descending Houston Center
09:50PM 29.6011 -95.1875 282° West 290 334 6,000  Level Houston Center
09:51PM 29.6119 -95.2631 279° West 274 315 6,000 -840 Level Houston Center
09:52PM 29.6222 -95.3508 278° West 279 321 4,500 -1,680 Descending Houston Center
09:52PM 29.6514 -95.4169 297° West 282 325 2,800 -1,860 Descending Houston Center
09:53PM 29.6669 -95.4369 312° West 277 319 2,300 -840 Descending Houston Center
09:53PM 29.7133 -95.4528 343° North 238 274 2,000 -300 Descending Houston Center
09:54PM 29.7269 -95.4436 30° Northeast 251 289 2,000  Level Houston Center
09:54PM 29.7364 -95.4067 74° East 157 181 2,000  Level Houston Center
09:55PM 29.7350 -95.3953 98° East 196 226 2,000 -180 Level Houston Center
09:56PM 29.7111 -95.3594 128° Southeast 158 182 1,800 -540 Descending Houston Center
09:57PM 29.6811 -95.3217 132° Southeast 158 182 1,000 -660 Descending Houston Center
09:58PM 29.6639 -95.3025 136° Southeast 112 129 600 -600 Descending Houston Center
09:58PM 29.6603 -95.2972 128° Southeast 127 146 400 -600 Descending Houston Center